createdAt,value
2018-10-09T00:00:13.829Z,60.49
2018-10-09T00:01:17.276Z,60.91
2018-10-09T00:02:20.756Z,60.96
2018-10-09T00:03:24.213Z,60.48
2018-10-09T00:04:27.618Z,60.39
2018-10-09T00:05:31.049Z,61.05
2018-10-09T00:06:34.468Z,60.45
2018-10-09T00:07:37.933Z,60.76
2018-10-09T00:08:41.345Z,60.61
2018-10-09T00:09:44.826Z,60.65
2018-10-09T00:10:48.449Z,61.13
2018-10-09T00:11:51.892Z,60.39
2018-10-09T00:12:55.336Z,60.42
2018-10-09T00:13:58.722Z,60.63
2018-10-09T00:15:02.160Z,60.49
2018-10-09T00:16:05.591Z,60.25
2018-10-09T00:17:09.127Z,60.84
2018-10-09T00:18:12.560Z,61.32
2018-10-09T00:19:15.946Z,61.19
2018-10-09T00:20:24.532Z,60.97
2018-10-09T00:21:27.999Z,61.15
2018-10-09T00:22:31.462Z,60.73
2018-10-09T00:23:35.022Z,60.61
2018-10-09T00:24:38.448Z,60.49
2018-10-09T00:25:41.837Z,60.97
2018-10-09T00:26:45.294Z,60.59
2018-10-09T00:27:48.746Z,61.06
2018-10-09T00:28:52.177Z,60.83
2018-10-09T00:29:55.620Z,60.82
2018-10-09T00:30:59.038Z,60.77
2018-10-09T00:32:02.500Z,60.65
2018-10-09T00:33:05.946Z,60.60
2018-10-09T00:34:09.369Z,60.49
2018-10-09T00:35:12.941Z,60.88
2018-10-09T00:36:16.352Z,60.73
2018-10-09T00:37:19.788Z,60.62
2018-10-09T00:38:23.209Z,60.55
2018-10-09T00:39:26.589Z,60.67
2018-10-09T00:40:30.044Z,60.64
2018-10-09T00:41:33.521Z,61.37
2018-10-09T00:42:36.988Z,60.95
2018-10-09T00:43:40.431Z,61.03
2018-10-09T00:44:43.864Z,60.90
2018-10-09T00:45:47.298Z,60.68
2018-10-09T00:46:50.747Z,60.93
2018-10-09T00:47:54.332Z,61.59
2018-10-09T00:48:57.778Z,61.08
2018-10-09T00:50:01.359Z,61.33
2018-10-09T00:51:04.812Z,61.55
2018-10-09T00:52:08.685Z,60.93
2018-10-09T00:53:12.123Z,61.53
2018-10-09T00:54:15.576Z,61.00
2018-10-09T00:55:19.049Z,61.51
2018-10-09T00:56:22.481Z,61.46
2018-10-09T00:57:25.961Z,60.98
2018-10-09T00:58:29.419Z,60.91
2018-10-09T00:59:32.907Z,61.48
2018-10-09T01:00:36.381Z,61.23
2018-10-09T01:01:39.813Z,61.45
2018-10-09T01:02:43.287Z,60.71
2018-10-09T01:03:46.692Z,61.13
2018-10-09T01:04:50.299Z,60.68
2018-10-09T01:05:53.722Z,60.78
2018-10-09T01:06:57.128Z,61.04
2018-10-09T01:08:00.521Z,61.07
2018-10-09T01:09:04.580Z,61.55
2018-10-09T01:10:08.077Z,60.90
2018-10-09T01:11:11.906Z,61.25
2018-10-09T01:12:15.357Z,60.67
2018-10-09T01:13:18.798Z,60.88
2018-10-09T01:14:22.240Z,61.48
2018-10-09T01:15:25.652Z,61.62
2018-10-09T01:16:29.070Z,61.57
2018-10-09T01:17:32.531Z,60.87
2018-10-09T01:18:35.983Z,60.80
2018-10-09T01:19:39.503Z,60.87
2018-10-09T01:20:42.947Z,61.16
2018-10-09T01:21:46.326Z,61.54
2018-10-09T01:22:49.800Z,61.54
2018-10-09T01:23:53.208Z,60.93
2018-10-09T01:24:56.657Z,61.08
2018-10-09T01:26:00.075Z,61.33
2018-10-09T01:27:03.496Z,61.40
2018-10-09T01:28:07.004Z,61.20
2018-10-09T01:29:10.498Z,61.83
2018-10-09T01:30:13.957Z,61.25
2018-10-09T01:31:17.411Z,60.95
2018-10-09T01:32:20.831Z,61.78
2018-10-09T01:33:24.264Z,61.52
2018-10-09T01:34:27.673Z,61.36
2018-10-09T01:35:31.124Z,61.52
2018-10-09T01:36:34.539Z,61.14
2018-10-09T01:37:37.946Z,61.70
2018-10-09T01:38:41.376Z,60.93
2018-10-09T01:39:44.809Z,60.94
2018-10-09T01:40:48.324Z,60.95
2018-10-09T01:41:51.770Z,61.71
2018-10-09T01:42:55.231Z,61.92
2018-10-09T01:43:58.687Z,61.69
2018-10-09T01:45:02.108Z,61.95
2018-10-09T01:46:05.603Z,61.95
2018-10-09T01:47:09.042Z,61.61
2018-10-09T01:48:12.477Z,61.71
2018-10-09T01:49:15.940Z,61.32
2018-10-09T01:50:19.358Z,61.59
2018-10-09T01:51:22.830Z,61.70
2018-10-09T01:52:26.265Z,61.45
2018-10-09T01:53:29.723Z,61.63
2018-10-09T01:54:33.241Z,61.67
2018-10-09T01:55:36.704Z,61.63
2018-10-09T01:56:40.121Z,61.27
2018-10-09T01:57:43.968Z,60.96
2018-10-09T01:58:47.524Z,60.91
2018-10-09T01:59:51.370Z,60.75
2018-10-09T02:00:54.880Z,61.29
2018-10-09T02:01:58.345Z,61.42
2018-10-09T02:03:01.753Z,61.72
2018-10-09T02:04:05.203Z,61.59
2018-10-09T02:05:08.662Z,61.63
2018-10-09T02:06:12.083Z,61.38
2018-10-09T02:07:15.559Z,61.75
2018-10-09T02:08:19.021Z,61.84
2018-10-09T02:09:23.716Z,61.57
2018-10-09T02:10:27.153Z,61.81
2018-10-09T02:11:30.554Z,61.11
2018-10-09T02:12:34.033Z,61.88
2018-10-09T02:13:37.459Z,62.12
2018-10-09T02:14:40.894Z,61.50
2018-10-09T02:15:44.321Z,61.52
2018-10-09T02:16:47.753Z,61.74
2018-10-09T02:17:51.464Z,62.06
2018-10-09T02:18:54.888Z,61.51
2018-10-09T02:19:58.302Z,61.73
2018-10-09T02:21:01.719Z,61.49
2018-10-09T02:22:05.244Z,61.53
2018-10-09T02:23:08.688Z,62.15
2018-10-09T02:24:12.108Z,61.40
2018-10-09T02:25:15.551Z,61.59
2018-10-09T02:26:19.025Z,61.50
2018-10-09T02:27:22.480Z,61.90
2018-10-09T02:28:25.922Z,61.79
2018-10-09T02:29:29.325Z,62.33
2018-10-09T02:30:32.749Z,62.22
2018-10-09T02:31:36.180Z,61.45
2018-10-09T02:32:39.609Z,61.44
2018-10-09T02:33:43.225Z,62.03
2018-10-09T02:34:46.515Z,62.36
2018-10-09T02:35:49.949Z,62.40
2018-10-09T02:36:53.441Z,62.36
2018-10-09T02:37:56.888Z,62.30
2018-10-09T02:39:00.356Z,62.13
2018-10-09T02:40:03.868Z,62.24
2018-10-09T02:41:07.554Z,61.64
2018-10-09T02:42:10.968Z,61.94
2018-10-09T02:43:14.408Z,62.09
2018-10-09T02:44:17.863Z,62.88
2018-10-09T02:45:21.309Z,62.46
2018-10-09T02:46:24.883Z,62.06
2018-10-09T02:47:28.346Z,61.94
2018-10-09T02:48:31.748Z,62.00
2018-10-09T02:49:35.203Z,61.91
2018-10-09T02:50:38.628Z,61.58
2018-10-09T02:51:42.084Z,62.17
2018-10-09T02:52:45.672Z,61.66
2018-10-09T02:53:49.113Z,62.53
2018-10-09T02:54:52.580Z,62.17
2018-10-09T02:55:56.057Z,61.70
2018-10-09T02:56:59.500Z,61.85
2018-10-09T02:58:02.911Z,61.78
2018-10-09T02:59:06.428Z,62.10
2018-10-09T03:00:10.049Z,61.77
2018-10-09T03:01:13.523Z,62.39
2018-10-09T03:02:16.919Z,62.08
2018-10-09T03:03:21.395Z,61.72
2018-10-09T03:04:24.852Z,61.71
2018-10-09T03:05:28.456Z,62.60
2018-10-09T03:06:31.943Z,62.07
2018-10-09T03:07:35.417Z,62.67
2018-10-09T03:08:39.026Z,62.26
2018-10-09T03:09:42.437Z,62.24
2018-10-09T03:10:45.858Z,62.28
2018-10-09T03:11:49.301Z,61.91
2018-10-09T03:12:52.724Z,62.18
2018-10-09T03:13:56.110Z,62.17
2018-10-09T03:14:59.574Z,62.42
2018-10-09T03:16:02.998Z,62.17
2018-10-09T03:17:06.539Z,61.89
2018-10-09T03:18:10.143Z,62.17
2018-10-09T03:19:13.576Z,61.88
2018-10-09T03:20:17.681Z,62.11
2018-10-09T03:21:21.715Z,62.16
2018-10-09T03:22:25.610Z,62.62
2018-10-09T03:23:29.322Z,61.88
2018-10-09T03:24:33.242Z,62.35
2018-10-09T03:25:37.060Z,62.12
2018-10-09T03:26:41.066Z,62.47
2018-10-09T03:27:44.866Z,62.42
2018-10-09T03:28:48.536Z,62.25
2018-10-09T03:29:52.814Z,62.42
2018-10-09T03:30:56.335Z,61.81
2018-10-09T03:31:59.818Z,61.85
2018-10-09T03:33:03.241Z,62.33
2018-10-09T03:34:07.040Z,62.12
2018-10-09T03:35:11.223Z,61.89
2018-10-09T03:36:14.857Z,62.35
2018-10-09T03:37:18.393Z,62.32
2018-10-09T03:38:21.825Z,61.89
2018-10-09T03:39:25.247Z,61.84
2018-10-09T03:40:28.715Z,62.38
2018-10-09T03:41:32.140Z,62.74
2018-10-09T03:42:35.837Z,62.38
2018-10-09T03:43:39.271Z,62.39
2018-10-09T03:44:42.723Z,62.90
2018-10-09T03:45:46.146Z,62.51
2018-10-09T03:46:49.613Z,62.28
2018-10-09T03:47:53.071Z,62.85
2018-10-09T03:48:56.497Z,62.03
2018-10-09T03:49:59.912Z,62.59
2018-10-09T03:51:03.368Z,62.04
2018-10-09T03:52:07.062Z,62.68
2018-10-09T03:53:10.533Z,62.33
2018-10-09T03:54:13.922Z,62.86
2018-10-09T03:55:17.373Z,62.61
2018-10-09T03:56:20.925Z,62.84
2018-10-09T03:57:24.362Z,62.04
2018-10-09T03:58:27.999Z,62.24
2018-10-09T03:59:31.437Z,61.94
2018-10-09T04:00:35.007Z,62.74
2018-10-09T04:01:38.478Z,62.04
2018-10-09T04:02:41.927Z,62.45
2018-10-09T04:03:45.349Z,62.61
2018-10-09T04:04:48.810Z,62.77
2018-10-09T04:05:52.194Z,62.57
2018-10-09T04:06:55.605Z,62.48
2018-10-09T04:07:59.001Z,62.27
2018-10-09T04:09:02.452Z,62.33
2018-10-09T04:10:06.021Z,62.67
2018-10-09T04:11:09.455Z,62.51
2018-10-09T04:12:12.881Z,62.87
2018-10-09T04:13:16.328Z,62.85
2018-10-09T04:14:19.758Z,62.57
2018-10-09T04:15:23.190Z,62.81
2018-10-09T04:16:26.577Z,62.78
2018-10-09T04:17:29.974Z,62.93
2018-10-09T04:18:33.372Z,62.42
2018-10-09T04:19:36.827Z,62.95
2018-10-09T04:20:40.290Z,62.82
2018-10-09T04:21:43.723Z,62.14
2018-10-09T04:22:47.155Z,62.61
2018-10-09T04:23:50.692Z,62.69
2018-10-09T04:24:54.149Z,62.31
2018-10-09T04:25:57.583Z,63.05
2018-10-09T04:27:01.167Z,62.87
2018-10-09T04:28:04.599Z,62.26
2018-10-09T04:29:08.125Z,63.06
2018-10-09T04:30:11.535Z,62.75
2018-10-09T04:31:15.042Z,62.46
2018-10-09T04:32:18.456Z,62.60
2018-10-09T04:33:21.876Z,63.02
2018-10-09T04:34:25.315Z,63.00
2018-10-09T04:35:28.794Z,63.11
2018-10-09T04:36:32.241Z,62.91
2018-10-09T04:37:35.668Z,63.13
2018-10-09T04:38:39.119Z,62.75
2018-10-09T04:39:42.570Z,63.03
2018-10-09T04:40:45.965Z,62.58
2018-10-09T04:41:49.426Z,62.47
2018-10-09T04:42:53.244Z,62.75
2018-10-09T04:43:56.740Z,62.83
2018-10-09T04:45:00.529Z,62.83
2018-10-09T04:46:04.133Z,62.30
2018-10-09T04:47:07.622Z,61.34
2018-10-09T04:48:11.102Z,61.11
2018-10-09T04:49:14.544Z,60.87
2018-10-09T04:50:18.011Z,60.86
2018-10-09T04:51:21.618Z,61.03
2018-10-09T04:52:25.075Z,60.09
2018-10-09T04:53:28.525Z,59.60
2018-10-09T04:54:31.947Z,59.56
2018-10-09T04:55:35.395Z,60.63
2018-10-09T04:56:38.985Z,60.83
2018-10-09T04:57:42.445Z,60.78
2018-10-09T04:58:45.865Z,60.68
2018-10-09T04:59:49.328Z,60.80
2018-10-09T05:00:53.001Z,60.57
2018-10-09T05:01:56.492Z,59.67
2018-10-09T05:02:59.929Z,59.42
2018-10-09T05:04:03.370Z,60.51
2018-10-09T05:05:06.867Z,60.10
2018-10-09T05:06:10.484Z,60.86
2018-10-09T05:07:13.930Z,60.40
2018-10-09T05:08:17.354Z,60.15
2018-10-09T05:09:20.858Z,60.36
2018-10-09T05:10:24.359Z,60.42
2018-10-09T05:11:27.814Z,60.49
2018-10-09T05:12:31.243Z,59.81
2018-10-09T05:13:34.677Z,59.70
2018-10-09T05:14:38.103Z,59.66
2018-10-09T05:15:41.545Z,59.02
2018-10-09T05:16:45.086Z,58.94
2018-10-09T05:17:48.534Z,58.87
2018-10-09T05:18:51.923Z,59.18
2018-10-09T05:19:55.325Z,59.17
2018-10-09T05:20:58.728Z,58.75
2018-10-09T05:22:02.181Z,58.21
2018-10-09T05:23:05.718Z,57.57
2018-10-09T05:24:09.104Z,58.56
2018-10-09T05:25:12.530Z,58.35
2018-10-09T05:26:16.049Z,57.79
2018-10-09T05:27:19.545Z,58.25
2018-10-09T05:28:23.017Z,57.80
2018-10-09T05:29:26.599Z,57.34
2018-10-09T05:30:30.083Z,57.70
2018-10-09T05:31:33.875Z,57.51
2018-10-09T05:32:37.331Z,57.15
2018-10-09T05:33:40.783Z,57.60
2018-10-09T05:34:44.282Z,57.42
2018-10-09T05:35:47.861Z,57.62
2018-10-09T05:36:51.520Z,57.99
2018-10-09T05:37:54.983Z,57.92
2018-10-09T05:38:58.546Z,57.44
2018-10-09T05:40:02.007Z,57.49
2018-10-09T05:41:06.147Z,57.79
2018-10-09T05:42:09.572Z,56.96
2018-10-09T05:43:13.038Z,57.17
2018-10-09T05:44:16.532Z,57.45
2018-10-09T05:45:20.045Z,56.86
2018-10-09T05:46:23.498Z,56.64
2018-10-09T05:47:26.990Z,56.49
2018-10-09T05:48:30.511Z,56.38
2018-10-09T05:49:33.956Z,55.87
2018-10-09T05:50:37.404Z,55.96
2018-10-09T05:51:40.849Z,56.47
2018-10-09T05:52:44.358Z,56.48
2018-10-09T05:53:47.795Z,56.54
2018-10-09T05:54:51.592Z,56.71
2018-10-09T05:55:55.009Z,56.23
2018-10-09T05:56:58.440Z,56.61
2018-10-09T05:58:02.087Z,56.42
2018-10-09T05:59:05.642Z,55.99
2018-10-09T06:00:09.918Z,56.30
2018-10-09T06:01:13.625Z,56.33
2018-10-09T06:02:17.157Z,56.03
2018-10-09T06:03:20.618Z,56.34
2018-10-09T06:04:24.072Z,56.16
2018-10-09T06:05:27.497Z,56.18
2018-10-09T06:06:30.921Z,55.93
2018-10-09T06:07:34.366Z,55.95
2018-10-09T06:08:38.017Z,56.08
2018-10-09T06:09:41.476Z,55.64
2018-10-09T06:10:44.900Z,56.06
2018-10-09T06:11:48.456Z,55.58
2018-10-09T06:12:52.075Z,55.86
2018-10-09T06:13:55.514Z,55.27
2018-10-09T06:14:58.926Z,55.45
2018-10-09T06:16:02.502Z,55.50
2018-10-09T06:17:05.942Z,55.46
2018-10-09T06:18:09.371Z,55.48
2018-10-09T06:19:12.839Z,55.51
2018-10-09T06:20:16.250Z,55.36
2018-10-09T06:21:20.725Z,55.66
2018-10-09T06:22:24.159Z,54.89
2018-10-09T06:23:27.576Z,54.82
2018-10-09T06:24:31.062Z,55.33
2018-10-09T06:25:34.474Z,55.30
2018-10-09T06:26:38.082Z,55.05
2018-10-09T06:27:41.521Z,55.15
2018-10-09T06:28:44.938Z,55.40
2018-10-09T06:29:48.377Z,54.87
2018-10-09T06:30:51.921Z,54.17
2018-10-09T06:31:55.341Z,54.90
2018-10-09T06:32:58.775Z,55.27
2018-10-09T06:34:02.337Z,55.29
2018-10-09T06:35:05.749Z,54.50
2018-10-09T06:36:09.160Z,55.01
2018-10-09T06:37:12.601Z,54.66
2018-10-09T06:38:16.067Z,54.38
2018-10-09T06:39:19.531Z,54.85
2018-10-09T06:40:22.988Z,55.45
2018-10-09T06:41:26.463Z,55.25
2018-10-09T06:42:29.920Z,54.53
2018-10-09T06:43:33.365Z,55.22
2018-10-09T06:44:36.864Z,54.80
2018-10-09T06:45:40.387Z,55.26
2018-10-09T06:46:43.995Z,54.70
2018-10-09T06:47:47.676Z,54.83
2018-10-09T06:48:51.052Z,55.17
2018-10-09T06:49:54.537Z,55.07
2018-10-09T06:50:58.456Z,54.59
2018-10-09T06:52:02.122Z,54.31
2018-10-09T06:53:05.573Z,54.94
2018-10-09T06:54:09.080Z,53.83
2018-10-09T06:55:12.466Z,54.51
2018-10-09T06:56:15.905Z,54.16
2018-10-09T06:57:19.349Z,54.47
2018-10-09T06:58:23.070Z,54.88
2018-10-09T06:59:26.550Z,54.71
2018-10-09T07:00:29.975Z,54.56
2018-10-09T07:01:33.430Z,54.66
2018-10-09T07:02:37.152Z,54.54
2018-10-09T07:03:40.591Z,55.17
2018-10-09T07:04:44.028Z,54.76
2018-10-09T07:05:47.487Z,54.79
2018-10-09T07:06:51.013Z,54.61
2018-10-09T07:07:54.477Z,54.24
2018-10-09T07:08:58.312Z,54.14
2018-10-09T07:10:01.733Z,54.42
2018-10-09T07:11:05.203Z,54.39
2018-10-09T07:12:08.664Z,54.32
2018-10-09T07:13:12.131Z,54.92
2018-10-09T07:14:15.574Z,54.89
2018-10-09T07:15:19.138Z,54.75
2018-10-09T07:16:22.597Z,54.91
2018-10-09T07:17:26.026Z,55.12
2018-10-09T07:18:29.465Z,55.12
2018-10-09T07:19:32.949Z,54.33
2018-10-09T07:20:36.424Z,54.31
2018-10-09T07:21:39.968Z,54.68
2018-10-09T07:22:43.421Z,54.11
2018-10-09T07:23:46.881Z,54.00
2018-10-09T07:24:50.314Z,53.84
2018-10-09T07:25:53.761Z,53.77
2018-10-09T07:26:57.246Z,53.30
2018-10-09T07:28:00.794Z,54.01
2018-10-09T07:29:04.295Z,54.05
2018-10-09T07:30:08.814Z,54.08
2018-10-09T07:31:12.312Z,54.00
2018-10-09T07:32:15.782Z,54.52
2018-10-09T07:33:19.240Z,54.36
2018-10-09T07:34:22.744Z,54.25
2018-10-09T07:35:26.187Z,53.88
2018-10-09T07:36:29.622Z,54.35
2018-10-09T07:37:33.077Z,53.63
2018-10-09T07:38:36.978Z,54.02
2018-10-09T07:39:40.423Z,54.41
2018-10-09T07:40:43.853Z,53.94
2018-10-09T07:41:47.316Z,54.28
2018-10-09T07:42:50.838Z,53.84
2018-10-09T07:43:54.407Z,53.96
2018-10-09T07:44:57.822Z,54.08
2018-10-09T07:46:01.221Z,53.96
2018-10-09T07:47:04.670Z,54.25
2018-10-09T07:48:08.128Z,53.68
2018-10-09T07:49:11.571Z,53.69
2018-10-09T07:50:15.038Z,53.59
2018-10-09T07:51:18.473Z,54.31
2018-10-09T07:52:22.109Z,54.15
2018-10-09T07:53:25.614Z,53.65
2018-10-09T07:54:29.051Z,53.69
2018-10-09T07:55:32.479Z,53.91
2018-10-09T07:56:35.925Z,55.17
2018-10-09T07:57:39.350Z,55.68
2018-10-09T07:58:42.829Z,55.71
2018-10-09T07:59:46.263Z,56.32
2018-10-09T08:00:49.736Z,56.17
2018-10-09T08:01:53.402Z,55.64
2018-10-09T08:02:56.799Z,56.18
2018-10-09T08:04:00.244Z,55.79
2018-10-09T08:05:04.124Z,55.58
2018-10-09T08:06:07.598Z,55.50
2018-10-09T08:07:11.025Z,55.17
2018-10-09T08:08:14.481Z,54.40
2018-10-09T08:09:17.926Z,54.64
2018-10-09T08:10:21.739Z,54.98
2018-10-09T08:11:25.148Z,54.41
2018-10-09T08:12:28.582Z,54.61
2018-10-09T08:13:32.021Z,54.92
2018-10-09T08:14:35.489Z,54.71
2018-10-09T08:15:38.961Z,55.13
2018-10-09T08:16:42.420Z,54.72
2018-10-09T08:17:45.896Z,54.65
2018-10-09T08:18:49.393Z,55.12
2018-10-09T08:19:52.958Z,54.74
2018-10-09T08:20:56.458Z,54.90
2018-10-09T08:21:59.879Z,54.61
2018-10-09T08:23:03.344Z,55.07
2018-10-09T08:24:07.364Z,54.78
2018-10-09T08:25:10.842Z,55.24
2018-10-09T08:26:14.239Z,54.87
2018-10-09T08:27:17.757Z,54.69
2018-10-09T08:28:21.985Z,54.53
2018-10-09T08:29:25.512Z,54.56
2018-10-09T08:30:28.962Z,54.82
2018-10-09T08:31:32.392Z,55.29
2018-10-09T08:32:35.833Z,55.23
2018-10-09T08:33:39.266Z,55.22
2018-10-09T08:34:42.854Z,55.19
2018-10-09T08:35:46.301Z,55.37
2018-10-09T08:36:50.234Z,55.27
2018-10-09T08:37:53.711Z,54.85
2018-10-09T08:38:57.174Z,55.35
2018-10-09T08:40:00.668Z,54.57
2018-10-09T08:41:04.079Z,54.69
2018-10-09T08:42:07.510Z,55.08
2018-10-09T08:43:10.937Z,54.98
2018-10-09T08:44:14.396Z,55.23
2018-10-09T08:45:17.848Z,55.31
2018-10-09T08:46:21.392Z,55.30
2018-10-09T08:47:24.780Z,55.05
2018-10-09T08:48:28.195Z,54.78
2018-10-09T08:49:31.634Z,55.18
2018-10-09T08:50:35.056Z,54.71
2018-10-09T08:51:38.494Z,54.97
2018-10-09T08:52:41.941Z,55.13
2018-10-09T08:53:45.384Z,54.77
2018-10-09T08:54:48.865Z,54.58
2018-10-09T08:55:52.305Z,54.76
2018-10-09T08:56:55.761Z,54.56
2018-10-09T08:57:59.174Z,54.96
2018-10-09T08:59:02.765Z,54.80
2018-10-09T09:00:07.278Z,54.42
2018-10-09T09:01:10.755Z,54.28
2018-10-09T09:02:14.219Z,55.11
2018-10-09T09:03:17.715Z,54.18
2018-10-09T09:04:21.157Z,54.91
2018-10-09T09:05:24.619Z,54.88
2018-10-09T09:06:28.076Z,54.79
2018-10-09T09:07:31.580Z,54.56
2018-10-09T09:08:35.327Z,54.63
2018-10-09T09:09:38.867Z,54.91
2018-10-09T09:10:42.289Z,54.09
2018-10-09T09:11:45.721Z,54.63
2018-10-09T09:12:49.363Z,54.40
2018-10-09T09:13:52.845Z,54.81
2018-10-09T09:14:56.259Z,54.54
2018-10-09T09:15:59.728Z,54.86
2018-10-09T09:17:03.178Z,55.01
2018-10-09T09:18:06.717Z,54.83
2018-10-09T09:19:10.300Z,54.30
2018-10-09T09:20:13.723Z,54.45
2018-10-09T09:21:17.256Z,54.24
2018-10-09T09:22:20.690Z,54.95
2018-10-09T09:23:24.280Z,55.06
2018-10-09T09:24:27.713Z,54.13
2018-10-09T09:25:31.151Z,54.63
2018-10-09T09:26:34.633Z,54.64
2018-10-09T09:27:38.239Z,55.05
2018-10-09T09:28:41.744Z,54.29
2018-10-09T09:29:45.181Z,54.59
2018-10-09T09:30:48.633Z,54.69
2018-10-09T09:31:52.087Z,54.78
2018-10-09T09:32:55.518Z,54.17
2018-10-09T09:33:59.004Z,54.63
2018-10-09T09:35:02.459Z,54.83
2018-10-09T09:36:05.978Z,54.38
2018-10-09T09:37:09.448Z,54.19
2018-10-09T09:38:12.900Z,54.79
2018-10-09T09:39:16.359Z,54.35
2018-10-09T09:40:19.863Z,54.58
2018-10-09T09:41:23.355Z,54.65
2018-10-09T09:42:26.799Z,54.54
2018-10-09T09:43:30.230Z,54.42
2018-10-09T09:44:33.685Z,54.42
2018-10-09T09:45:37.112Z,54.59
2018-10-09T09:46:40.544Z,54.59
2018-10-09T09:47:44.115Z,54.95
2018-10-09T09:48:47.560Z,54.88
2018-10-09T09:49:51.038Z,54.52
2018-10-09T09:50:54.480Z,54.83
2018-10-09T09:51:57.948Z,55.42
2018-10-09T09:53:01.385Z,54.99
2018-10-09T09:54:04.852Z,54.91
2018-10-09T09:55:08.446Z,55.10
2018-10-09T09:56:11.873Z,55.15
2018-10-09T09:57:15.287Z,55.69
2018-10-09T09:58:18.839Z,55.17
2018-10-09T09:59:22.250Z,55.71
2018-10-09T10:00:30.924Z,55.46
2018-10-09T10:01:39.603Z,56.07
2018-10-09T10:02:43.039Z,55.16
2018-10-09T10:03:46.470Z,55.50
2018-10-09T10:04:50.396Z,55.88
2018-10-09T10:05:53.880Z,55.17
2018-10-09T10:06:57.338Z,55.70
2018-10-09T10:08:01.394Z,55.81
2018-10-09T10:09:06.615Z,55.94
2018-10-09T10:10:10.116Z,56.07
2018-10-09T10:11:13.558Z,56.28
2018-10-09T10:12:16.964Z,55.45
2018-10-09T10:13:20.424Z,56.27
2018-10-09T10:14:23.858Z,55.52
2018-10-09T10:15:27.314Z,55.77
2018-10-09T10:16:30.782Z,55.85
2018-10-09T10:17:34.189Z,56.42
2018-10-09T10:18:37.666Z,55.54
2018-10-09T10:19:41.112Z,56.33
2018-10-09T10:20:44.656Z,55.78
2018-10-09T10:21:48.145Z,56.40
2018-10-09T10:22:51.699Z,55.73
2018-10-09T10:23:55.137Z,55.99
2018-10-09T10:24:58.547Z,55.87
2018-10-09T10:26:02.005Z,56.22
2018-10-09T10:27:05.455Z,55.94
2018-10-09T10:28:08.932Z,56.64
2018-10-09T10:29:12.416Z,56.11
2018-10-09T10:30:15.819Z,55.98
2018-10-09T10:31:19.332Z,55.96
2018-10-09T10:32:22.768Z,56.64
2018-10-09T10:33:26.226Z,56.18
2018-10-09T10:34:29.690Z,56.16
2018-10-09T10:35:33.113Z,56.49
2018-10-09T10:36:36.603Z,56.64
2018-10-09T10:37:40.021Z,56.28
2018-10-09T10:38:43.476Z,56.44
2018-10-09T10:39:46.905Z,56.54
2018-10-09T10:40:50.395Z,56.30
2018-10-09T10:41:53.851Z,56.81
2018-10-09T10:42:57.304Z,56.78
2018-10-09T10:44:00.734Z,56.71
2018-10-09T10:45:04.205Z,56.95
2018-10-09T10:46:08.137Z,56.85
2018-10-09T10:47:11.561Z,56.63
2018-10-09T10:48:14.996Z,56.81
2018-10-09T10:49:18.477Z,56.43
2018-10-09T10:50:21.908Z,57.06
2018-10-09T10:51:25.592Z,57.06
2018-10-09T10:52:29.024Z,57.46
2018-10-09T10:53:32.469Z,57.05
2018-10-09T10:54:35.885Z,57.05
2018-10-09T10:55:39.325Z,56.85
2018-10-09T10:56:42.777Z,56.76
2018-10-09T10:57:46.235Z,57.35
2018-10-09T10:58:50.379Z,57.14
2018-10-09T10:59:54.076Z,57.49
2018-10-09T11:00:57.628Z,56.88
2018-10-09T11:02:01.061Z,56.82
2018-10-09T11:03:04.608Z,56.65
2018-10-09T11:04:08.103Z,56.77
2018-10-09T11:05:11.524Z,57.27
2018-10-09T11:06:15.114Z,57.48
2018-10-09T11:07:18.572Z,57.38
2018-10-09T11:08:22.363Z,57.10
2018-10-09T11:09:25.722Z,57.49
2018-10-09T11:10:29.175Z,57.63
2018-10-09T11:11:32.611Z,57.43
2018-10-09T11:12:36.056Z,57.42
2018-10-09T11:13:39.626Z,57.49
2018-10-09T11:14:43.137Z,57.69
2018-10-09T11:15:46.508Z,57.27
2018-10-09T11:16:50.080Z,57.25
2018-10-09T11:17:53.500Z,57.49
2018-10-09T11:18:56.923Z,57.39
2018-10-09T11:20:00.338Z,57.62
2018-10-09T11:21:03.815Z,57.56
2018-10-09T11:22:07.288Z,56.94
2018-10-09T11:23:10.733Z,57.32
2018-10-09T11:24:14.178Z,57.55
2018-10-09T11:25:17.579Z,56.69
2018-10-09T11:26:21.103Z,57.20
2018-10-09T11:27:24.538Z,57.11
2018-10-09T11:28:27.970Z,57.47
2018-10-09T11:29:31.429Z,56.85
2018-10-09T11:30:34.849Z,57.59
2018-10-09T11:31:38.275Z,57.28
2018-10-09T11:32:41.730Z,57.42
2018-10-09T11:33:45.167Z,56.90
2018-10-09T11:34:48.646Z,57.26
2018-10-09T11:35:52.224Z,57.16
2018-10-09T11:36:55.673Z,56.86
2018-10-09T11:37:59.485Z,57.56
2018-10-09T11:39:02.947Z,57.46
2018-10-09T11:40:06.600Z,57.20
2018-10-09T11:41:10.019Z,56.91
2018-10-09T11:42:13.480Z,57.58
2018-10-09T11:43:16.885Z,57.25
2018-10-09T11:44:20.352Z,57.25
2018-10-09T11:45:23.830Z,57.25
2018-10-09T11:46:27.257Z,57.12
2018-10-09T11:47:30.684Z,56.96
2018-10-09T11:48:34.095Z,56.76
2018-10-09T11:49:37.552Z,57.20
2018-10-09T11:50:40.999Z,57.41
2018-10-09T11:51:44.434Z,57.28
2018-10-09T11:52:47.940Z,57.30
2018-10-09T11:53:51.543Z,57.67
2018-10-09T11:54:55.000Z,57.44
2018-10-09T11:55:58.461Z,57.60
2018-10-09T11:57:01.927Z,57.20
2018-10-09T11:58:05.568Z,58.21
2018-10-09T11:59:09.102Z,58.16
2018-10-09T12:00:12.549Z,57.68
2018-10-09T12:01:16.075Z,57.42
2018-10-09T12:02:19.714Z,57.79
2018-10-09T12:03:23.184Z,58.28
2018-10-09T12:04:26.637Z,58.55
2018-10-09T12:05:30.056Z,58.16
2018-10-09T12:06:33.496Z,58.20
2018-10-09T12:07:36.966Z,57.44
2018-10-09T12:08:40.434Z,57.49
2018-10-09T12:09:43.942Z,57.15
2018-10-09T12:10:47.373Z,56.47
2018-10-09T12:11:51.242Z,56.91
2018-10-09T12:12:54.716Z,56.42
2018-10-09T12:13:58.225Z,55.61
2018-10-09T12:15:01.670Z,55.46
2018-10-09T12:16:05.116Z,55.45
2018-10-09T12:17:08.615Z,54.52
2018-10-09T12:18:12.076Z,54.51
2018-10-09T12:19:15.552Z,54.52
2018-10-09T12:20:19.628Z,53.43
2018-10-09T12:21:23.208Z,54.05
2018-10-09T12:22:26.712Z,53.66
2018-10-09T12:23:30.166Z,52.95
2018-10-09T12:24:33.647Z,52.90
2018-10-09T12:25:37.134Z,53.19
2018-10-09T12:26:40.612Z,52.89
2018-10-09T12:27:44.101Z,53.21
2018-10-09T12:28:47.557Z,52.87
2018-10-09T12:29:51.314Z,53.05
2018-10-09T12:30:54.747Z,52.96
2018-10-09T12:31:58.214Z,52.25
2018-10-09T12:33:01.782Z,52.62
2018-10-09T12:34:05.672Z,52.37
2018-10-09T12:35:09.200Z,52.11
2018-10-09T12:36:12.650Z,52.07
2018-10-09T12:37:16.126Z,52.03
2018-10-09T12:38:19.625Z,51.97
2018-10-09T12:39:23.167Z,51.55
2018-10-09T12:40:26.635Z,51.79
2018-10-09T12:41:30.122Z,51.35
2018-10-09T12:42:33.619Z,52.06
2018-10-09T12:43:37.076Z,51.89
2018-10-09T12:44:40.550Z,51.81
2018-10-09T12:45:44.384Z,52.44
2018-10-09T12:46:47.823Z,51.70
2018-10-09T12:47:51.503Z,51.99
2018-10-09T12:48:54.970Z,51.63
2018-10-09T12:49:58.916Z,50.89
2018-10-09T12:51:02.374Z,50.89
2018-10-09T12:52:05.828Z,51.03
2018-10-09T12:53:09.326Z,50.63
2018-10-09T12:54:12.783Z,50.86
2018-10-09T12:55:16.219Z,50.52
2018-10-09T12:56:19.681Z,51.02
2018-10-09T12:57:23.197Z,50.90
2018-10-09T12:58:26.679Z,51.00
2018-10-09T12:59:30.166Z,51.23
2018-10-09T13:00:33.646Z,50.96
2018-10-09T13:01:37.052Z,50.62
2018-10-09T13:02:40.471Z,50.65
2018-10-09T13:03:43.969Z,50.82
2018-10-09T13:04:47.399Z,50.44
2018-10-09T13:05:50.878Z,51.45
2018-10-09T13:06:54.318Z,50.65
2018-10-09T13:07:57.772Z,51.24
2018-10-09T13:09:01.200Z,50.96
2018-10-09T13:10:04.771Z,51.33
2018-10-09T13:11:08.289Z,51.51
2018-10-09T13:12:11.693Z,51.44
2018-10-09T13:13:15.153Z,50.98
2018-10-09T13:14:18.729Z,51.46
2018-10-09T13:15:22.179Z,50.83
2018-10-09T13:16:25.626Z,51.60
2018-10-09T13:17:29.093Z,51.11
2018-10-09T13:18:32.521Z,51.24
2018-10-09T13:19:35.995Z,51.67
2018-10-09T13:20:39.408Z,51.42
2018-10-09T13:21:43.099Z,51.49
2018-10-09T13:22:46.460Z,51.91
2018-10-09T13:23:49.977Z,51.72
2018-10-09T13:24:53.916Z,51.82
2018-10-09T13:25:57.586Z,52.24
2018-10-09T13:27:01.129Z,51.99
2018-10-09T13:28:04.592Z,51.69
2018-10-09T13:29:08.060Z,52.26
2018-10-09T13:30:11.643Z,52.66
2018-10-09T13:31:15.121Z,52.37
2018-10-09T13:32:18.531Z,52.54
2018-10-09T13:33:21.988Z,52.53
2018-10-09T13:34:25.474Z,52.77
2018-10-09T13:35:28.947Z,52.60
2018-10-09T13:36:32.455Z,53.25
2018-10-09T13:37:35.911Z,52.91